Century Venus — 3FXD2 — position and weather

sailwx.info

Track history (hours):
 
Tides and Currents Weather Stations Pressure Air Temp Water Temp Dewpoint Dewpoint Depression Visibility Wind Speed Wind Dir Waves Ship Positions

Century Venus

Last reported at 2018-Jun-14 04:27 UTC. Time now 2018-Jun-24 01:44 UTC.
Position N 30°03' W 090°36'.
Warning: this ship's position is 9 days out of date.

Length 137 m; draft 5 m.

Type: Cargo ship. MMSI: 357069000.

Date/timePositionNaut miles runAvg speedWind from/ knotsBaromVisibWave heightAir tempDewpointWater temp
2018-Jun-14 04:27N 30°03' W 090°36'0 0.0
2018-Jun-13 23:57N 30°03' W 090°36'0 0.0
2018-Jun-13 06:21N 30°03' W 090°36'0 0.0
2018-Jun-13 05:57N 30°03' W 090°36'0 0.0
2018-Jun-13 05:27N 30°03' W 090°36'0 0.0
2018-Jun-13 04:57N 30°03' W 090°36'0 0.0
2018-Jun-13 04:27N 30°03' W 090°36'0 0.0
2018-Jun-13 03:09N 30°03' W 090°36'0 0.0
2018-Jun-13 02:57N 30°03' W 090°36'  
2018-Jun-10 12:57N 30°03' W 090°36'13 4.7
2018-Jun-10 10:06N 29°56' W 090°23'  
2018-Jun-04 08:21N 25°23' W 079°33'3 9.8
2018-Jun-04 08:00N 25°26' W 079°32'5 9.9
2018-Jun-04 07:29N 25°31' W 079°31'5 9.9
2018-Jun-04 07:00N 25°36' W 079°31'5 9.8
2018-Jun-04 06:30N 25°41' W 079°30'5 9.7
2018-Jun-04 06:00N 25°46' W 079°31'5 9.5
2018-Jun-04 05:30N 25°50' W 079°31'5 8.3
2018-Jun-04 04:54N 25°55' W 079°29'4 9.4
2018-Jun-04 04:30N 25°59' W 079°28'  
Track history (hours):
 
Tides and Currents Weather Stations Pressure Air Temp Water Temp Dewpoint Dewpoint Depression Visibility Wind Speed Wind Dir Waves Ship Positions

Century Venus

Last reported at 2018-Jun-14 04:27 UTC. Time now 2018-Jun-24 01:44 UTC.
Position N 30°03' W 090°36'.
Warning: this ship's position is 9 days out of date.

Length 137 m; draft 5 m.

Type: Cargo ship. MMSI: 357069000.

Date/timePositionNaut miles runAvg speedWind from/ knotsBaromVisibWave heightAir tempDewpointWater temp
2018-Jun-14 04:27N 30°03' W 090°36'0 0.0
2018-Jun-13 23:57N 30°03' W 090°36'0 0.0
2018-Jun-13 06:21N 30°03' W 090°36'0 0.0
2018-Jun-13 05:57N 30°03' W 090°36'0 0.0
2018-Jun-13 05:27N 30°03' W 090°36'0 0.0
2018-Jun-13 04:57N 30°03' W 090°36'0 0.0
2018-Jun-13 04:27N 30°03' W 090°36'0 0.0
2018-Jun-13 03:09N 30°03' W 090°36'0 0.0
2018-Jun-13 02:57N 30°03' W 090°36'  
2018-Jun-10 12:57N 30°03' W 090°36'13 4.7
2018-Jun-10 10:06N 29°56' W 090°23'  
2018-Jun-04 08:21N 25°23' W 079°33'3 9.8
2018-Jun-04 08:00N 25°26' W 079°32'5 9.9
2018-Jun-04 07:29N 25°31' W 079°31'5 9.9
2018-Jun-04 07:00N 25°36' W 079°31'5 9.8
2018-Jun-04 06:30N 25°41' W 079°30'5 9.7
2018-Jun-04 06:00N 25°46' W 079°31'5 9.5
2018-Jun-04 05:30N 25°50' W 079°31'5 8.3
2018-Jun-04 04:54N 25°55' W 079°29'4 9.4
2018-Jun-04 04:30N 25°59' W 079°28'  

Dump ship's entire track history